sensor_id;sensor_type;location;lat;lon;timestamp;P1;durP1;ratioP1;P2;durP2;ratioP2
65092;SDS011;52025;50.288;2.794;2023-02-28T16:55:01;4.80;;;2.80;;
65092;SDS011;52025;50.288;2.794;2023-02-28T16:57:45;5.68;;;2.72;;
65092;SDS011;52025;50.288;2.794;2023-02-28T17:00:34;5.20;;;2.50;;
65092;SDS011;52025;50.288;2.794;2023-02-28T17:08:46;5.20;;;2.78;;
65092;SDS011;52025;50.288;2.794;2023-02-28T17:11:17;6.65;;;4.30;;
65092;SDS011;52025;50.288;2.794;2023-02-28T17:13:45;4.97;;;2.85;;
65092;SDS011;52025;50.288;2.794;2023-02-28T17:16:55;4.38;;;2.47;;
65092;SDS011;52025;50.288;2.794;2023-02-28T17:19:12;5.15;;;2.92;;
65092;SDS011;52025;50.288;2.794;2023-02-28T17:21:37;6.45;;;3.03;;
65092;SDS011;52025;50.288;2.794;2023-02-28T17:24:03;7.03;;;3.20;;
65092;SDS011;52025;50.288;2.794;2023-02-28T17:26:33;6.22;;;3.38;;
65092;SDS011;52025;50.288;2.794;2023-02-28T17:28:59;8.02;;;4.10;;
65092;SDS011;52025;50.288;2.794;2023-02-28T17:31:24;6.00;;;3.33;;
65092;SDS011;52025;50.288;2.794;2023-02-28T17:33:50;7.00;;;3.67;;
65092;SDS011;52025;50.288;2.794;2023-02-28T17:36:17;7.82;;;3.58;;
65092;SDS011;52025;50.288;2.794;2023-02-28T17:38:49;6.63;;;3.70;;
65092;SDS011;52025;50.288;2.794;2023-02-28T17:41:14;9.82;;;3.95;;
65092;SDS011;52025;50.288;2.794;2023-02-28T17:43:47;9.32;;;3.95;;
65092;SDS011;52025;50.288;2.794;2023-02-28T17:46:17;8.88;;;4.20;;
65092;SDS011;52025;50.288;2.794;2023-02-28T18:11:14;7.40;;;3.22;;
65092;SDS011;52025;50.288;2.794;2023-02-28T18:16:37;9.43;;;4.15;;
65092;SDS011;52025;50.288;2.794;2023-02-28T18:19:03;5.93;;;3.42;;
65092;SDS011;52025;50.288;2.794;2023-02-28T18:21:40;7.03;;;3.95;;
65092;SDS011;52025;50.288;2.794;2023-02-28T18:24:11;5.88;;;3.45;;
65092;SDS011;52025;50.288;2.794;2023-02-28T18:26:39;9.50;;;3.72;;
65092;SDS011;52025;50.288;2.794;2023-02-28T18:29:05;8.27;;;3.55;;
65092;SDS011;52025;50.288;2.794;2023-02-28T18:31:33;14.27;;;8.93;;
65092;SDS011;52025;50.288;2.794;2023-02-28T18:33:59;16.98;;;9.80;;
65092;SDS011;52025;50.288;2.794;2023-02-28T18:36:30;14.82;;;6.90;;
65092;SDS011;52025;50.288;2.794;2023-02-28T18:38:56;14.65;;;8.43;;
65092;SDS011;52025;50.288;2.794;2023-02-28T18:41:21;22.05;;;13.45;;
65092;SDS011;52025;50.288;2.794;2023-02-28T18:44:04;68.03;;;49.05;;
65092;SDS011;52025;50.288;2.794;2023-02-28T18:46:50;60.20;;;33.85;;
65092;SDS011;52025;50.288;2.794;2023-02-28T18:51:52;65.93;;;43.97;;
65092;SDS011;52025;50.288;2.794;2023-02-28T18:54:17;66.55;;;42.15;;
65092;SDS011;52025;50.288;2.794;2023-02-28T19:02:57;32.42;;;20.98;;
65092;SDS011;52025;50.288;2.794;2023-02-28T19:05:27;32.75;;;19.70;;
65092;SDS011;52025;50.288;2.794;2023-02-28T19:07:56;28.45;;;14.40;;
65092;SDS011;52025;50.288;2.794;2023-02-28T19:10:38;18.33;;;11.30;;
65092;SDS011;52025;50.288;2.794;2023-02-28T19:22:29;11.43;;;8.65;;
65092;SDS011;52025;50.288;2.794;2023-02-28T19:25:15;27.25;;;21.67;;
65092;SDS011;52025;50.288;2.794;2023-02-28T19:27:45;33.88;;;26.40;;
65092;SDS011;52025;50.288;2.794;2023-02-28T19:36:45;72.53;;;39.05;;
65092;SDS011;52025;50.288;2.794;2023-02-28T19:39:15;46.67;;;27.88;;
65092;SDS011;52025;50.288;2.794;2023-02-28T19:48:12;43.08;;;35.08;;
65092;SDS011;52025;50.288;2.794;2023-02-28T19:51:04;29.77;;;19.40;;
65092;SDS011;52025;50.288;2.794;2023-02-28T19:53:37;19.45;;;11.23;;
65092;SDS011;52025;50.288;2.794;2023-02-28T19:56:15;10.27;;;6.90;;
65092;SDS011;52025;50.288;2.794;2023-02-28T19:59:28;8.88;;;5.50;;
65092;SDS011;52025;50.288;2.794;2023-02-28T20:01:37;10.07;;;5.95;;
65092;SDS011;52025;50.288;2.794;2023-02-28T20:04:03;8.35;;;5.68;;
65092;SDS011;52025;50.288;2.794;2023-02-28T20:06:32;8.80;;;6.07;;
65092;SDS011;52025;50.288;2.794;2023-02-28T20:09:00;10.63;;;6.20;;
65092;SDS011;52025;50.288;2.794;2023-02-28T20:11:25;8.88;;;6.00;;
65092;SDS011;52025;50.288;2.794;2023-02-28T20:13:54;9.43;;;6.28;;
65092;SDS011;52025;50.288;2.794;2023-02-28T20:16:21;9.68;;;6.18;;
65092;SDS011;52025;50.288;2.794;2023-02-28T20:18:48;16.83;;;6.65;;
65092;SDS011;52025;50.288;2.794;2023-02-28T20:21:15;10.10;;;5.93;;
65092;SDS011;52025;50.288;2.794;2023-02-28T20:23:43;10.73;;;6.28;;
65092;SDS011;52025;50.288;2.794;2023-02-28T20:26:18;10.57;;;6.22;;
65092;SDS011;52025;50.288;2.794;2023-02-28T20:28:45;8.32;;;6.15;;
65092;SDS011;52025;50.288;2.794;2023-02-28T20:31:11;10.73;;;5.95;;
65092;SDS011;52025;50.288;2.794;2023-02-28T20:33:37;9.02;;;6.20;;
65092;SDS011;52025;50.288;2.794;2023-02-28T20:36:05;9.85;;;6.47;;
65092;SDS011;52025;50.288;2.794;2023-02-28T20:38:35;9.70;;;6.47;;
65092;SDS011;52025;50.288;2.794;2023-02-28T20:41:04;11.52;;;7.25;;
65092;SDS011;52025;50.288;2.794;2023-02-28T20:43:30;11.57;;;7.22;;
65092;SDS011;52025;50.288;2.794;2023-02-28T20:45:56;12.43;;;7.00;;
65092;SDS011;52025;50.288;2.794;2023-02-28T20:48:28;10.02;;;6.95;;
65092;SDS011;52025;50.288;2.794;2023-02-28T20:50:54;10.10;;;6.97;;
65092;SDS011;52025;50.288;2.794;2023-02-28T20:53:20;9.75;;;6.57;;
65092;SDS011;52025;50.288;2.794;2023-02-28T20:55:58;9.88;;;6.88;;
65092;SDS011;52025;50.288;2.794;2023-02-28T20:58:24;10.20;;;6.50;;
65092;SDS011;52025;50.288;2.794;2023-02-28T21:00:50;12.25;;;7.32;;
65092;SDS011;52025;50.288;2.794;2023-02-28T21:03:15;12.10;;;7.20;;
65092;SDS011;52025;50.288;2.794;2023-02-28T21:05:41;12.30;;;6.88;;
65092;SDS011;52025;50.288;2.794;2023-02-28T21:08:06;10.20;;;6.90;;
65092;SDS011;52025;50.288;2.794;2023-02-28T21:10:31;10.85;;;6.90;;
65092;SDS011;52025;50.288;2.794;2023-02-28T21:12:56;11.23;;;7.55;;
65092;SDS011;52025;50.288;2.794;2023-02-28T21:15:25;10.52;;;6.13;;
65092;SDS011;52025;50.288;2.794;2023-02-28T21:17:50;11.23;;;7.15;;
65092;SDS011;52025;50.288;2.794;2023-02-28T21:20:15;10.85;;;6.95;;
65092;SDS011;52025;50.288;2.794;2023-02-28T21:22:49;11.70;;;7.68;;
65092;SDS011;52025;50.288;2.794;2023-02-28T21:25:23;9.63;;;6.30;;
65092;SDS011;52025;50.288;2.794;2023-02-28T21:27:49;11.95;;;6.53;;
65092;SDS011;52025;50.288;2.794;2023-02-28T21:33:28;10.68;;;6.70;;
65092;SDS011;52025;50.288;2.794;2023-02-28T21:36:15;9.20;;;6.63;;
65092;SDS011;52025;50.288;2.794;2023-02-28T21:39:05;11.40;;;6.70;;
65092;SDS011;52025;50.288;2.794;2023-02-28T21:50:33;8.70;;;6.20;;
65092;SDS011;52025;50.288;2.794;2023-02-28T21:56:43;11.75;;;6.50;;
65092;SDS011;52025;50.288;2.794;2023-02-28T22:02:15;10.48;;;6.43;;
65092;SDS011;52025;50.288;2.794;2023-02-28T22:04:52;11.07;;;7.07;;
65092;SDS011;52025;50.288;2.794;2023-02-28T22:07:45;10.73;;;6.68;;
65092;SDS011;52025;50.288;2.794;2023-02-28T22:10:15;9.63;;;6.32;;
65092;SDS011;52025;50.288;2.794;2023-02-28T22:12:43;11.45;;;6.75;;
65092;SDS011;52025;50.288;2.794;2023-02-28T22:15:09;9.45;;;6.10;;
65092;SDS011;52025;50.288;2.794;2023-02-28T22:17:37;10.75;;;6.22;;
65092;SDS011;52025;50.288;2.794;2023-02-28T22:20:08;9.10;;;5.65;;
65092;SDS011;52025;50.288;2.794;2023-02-28T22:22:37;9.02;;;6.28;;
65092;SDS011;52025;50.288;2.794;2023-02-28T22:25:19;11.43;;;5.53;;
65092;SDS011;52025;50.288;2.794;2023-02-28T22:27:47;10.07;;;6.22;;
65092;SDS011;52025;50.288;2.794;2023-02-28T22:30:15;11.00;;;6.45;;
65092;SDS011;52025;50.288;2.794;2023-02-28T22:32:51;8.55;;;5.63;;
65092;SDS011;52025;50.288;2.794;2023-02-28T22:35:27;10.40;;;5.82;;
65092;SDS011;52025;50.288;2.794;2023-02-28T22:37:57;9.88;;;6.20;;
65092;SDS011;52025;50.288;2.794;2023-02-28T22:40:25;9.48;;;5.60;;
65092;SDS011;52025;50.288;2.794;2023-02-28T22:42:56;11.02;;;6.05;;
65092;SDS011;52025;50.288;2.794;2023-02-28T22:45:21;9.93;;;6.10;;
65092;SDS011;52025;50.288;2.794;2023-02-28T22:48:09;10.23;;;6.40;;
65092;SDS011;52025;50.288;2.794;2023-02-28T22:50:44;11.68;;;7.00;;
65092;SDS011;52025;50.288;2.794;2023-02-28T22:53:16;11.38;;;6.88;;
65092;SDS011;52025;50.288;2.794;2023-02-28T22:55:46;11.82;;;7.10;;
65092;SDS011;52025;50.288;2.794;2023-02-28T22:58:20;12.18;;;7.13;;
